sensor_id;sensor_type;location;lat;lon;timestamp;pressure;altitude;pressure_sealevel;temperature;humidity
68230;BME280;55048;52.220;5.160;2023-04-10T00:02:11;101943.41;;;11.11;56.29
68230;BME280;55048;52.220;5.160;2023-04-10T00:04:37;101998.94;;;11.46;56.40
68230;BME280;55048;52.220;5.160;2023-04-10T00:07:02;101979.19;;;11.29;56.34
68230;BME280;55048;52.220;5.160;2023-04-10T00:09:28;101980.16;;;11.34;56.61
68230;BME280;55048;52.220;5.160;2023-04-10T00:11:53;101972.00;;;11.29;56.57
68230;BME280;55048;52.220;5.160;2023-04-10T00:14:20;101940.13;;;11.09;56.62
68230;BME280;55048;52.220;5.160;2023-04-10T00:16:50;101974.03;;;11.34;56.85
68230;BME280;55048;52.220;5.160;2023-04-10T00:19:16;101957.47;;;11.25;56.78
68230;BME280;55048;52.220;5.160;2023-04-10T00:21:42;101933.34;;;11.13;56.96
68230;BME280;55048;52.220;5.160;2023-04-10T00:24:07;101930.09;;;11.11;57.21
68230;BME280;55048;52.220;5.160;2023-04-10T00:26:34;101942.31;;;11.19;56.84
68230;BME280;55048;52.220;5.160;2023-04-10T00:28:59;101952.72;;;11.27;57.01
68230;BME280;55048;52.220;5.160;2023-04-10T00:31:25;101927.44;;;11.11;57.05
68230;BME280;55048;52.220;5.160;2023-04-10T00:33:51;101905.63;;;10.96;57.36
68230;BME280;55048;52.220;5.160;2023-04-10T00:36:17;101933.34;;;11.13;57.32
68230;BME280;55048;52.220;5.160;2023-04-10T00:38:43;101921.50;;;11.09;57.43
68230;BME280;55048;52.220;5.160;2023-04-10T00:41:08;101847.28;;;10.50;57.81
68230;BME280;55048;52.220;5.160;2023-04-10T00:43:34;101925.00;;;11.03;57.90
68230;BME280;55048;52.220;5.160;2023-04-10T00:45:59;101937.88;;;11.13;57.88
68230;BME280;55048;52.220;5.160;2023-04-10T00:48:25;101901.28;;;10.95;57.95
68230;BME280;55048;52.220;5.160;2023-04-10T00:50:51;101907.63;;;11.01;58.22
68230;BME280;55048;52.220;5.160;2023-04-10T00:53:16;101889.25;;;10.86;58.18
68230;BME280;55048;52.220;5.160;2023-04-10T00:55:43;101927.03;;;11.08;58.23
68230;BME280;55048;52.220;5.160;2023-04-10T00:58:08;101917.84;;;11.04;58.45
68230;BME280;55048;52.220;5.160;2023-04-10T01:00:39;101925.19;;;11.08;58.84
68230;BME280;55048;52.220;5.160;2023-04-10T01:03:04;101921.75;;;11.01;58.93
68230;BME280;55048;52.220;5.160;2023-04-10T01:05:34;101917.44;;;11.00;58.98
68230;BME280;55048;52.220;5.160;2023-04-10T01:08:16;101919.88;;;11.08;58.86
68230;BME280;55048;52.220;5.160;2023-04-10T01:10:56;101892.97;;;10.85;59.10
68230;BME280;55048;52.220;5.160;2023-04-10T01:13:28;101908.88;;;10.98;59.29
68230;BME280;55048;52.220;5.160;2023-04-10T01:16:01;101890.53;;;10.83;59.42
68230;BME280;55048;52.220;5.160;2023-04-10T01:18:37;101889.06;;;10.87;59.56
68230;BME280;55048;52.220;5.160;2023-04-10T01:21:07;101871.50;;;10.80;59.54
68230;BME280;55048;52.220;5.160;2023-04-10T01:23:45;101897.22;;;10.92;59.76
68230;BME280;55048;52.220;5.160;2023-04-10T01:26:25;101872.13;;;10.75;60.07
68230;BME280;55048;52.220;5.160;2023-04-10T01:34:14;101879.88;;;10.77;60.31
68230;BME280;55048;52.220;5.160;2023-04-10T01:36:50;101870.91;;;10.71;60.53
68230;BME280;55048;52.220;5.160;2023-04-10T01:39:19;101870.09;;;10.77;60.53
68230;BME280;55048;52.220;5.160;2023-04-10T01:41:48;101848.41;;;10.67;60.29
68230;BME280;55048;52.220;5.160;2023-04-10T01:44:17;101866.16;;;10.80;60.33
68230;BME280;55048;52.220;5.160;2023-04-10T01:46:43;101863.09;;;10.76;60.54
68230;BME280;55048;52.220;5.160;2023-04-10T01:49:10;101879.44;;;10.86;60.45
68230;BME280;55048;52.220;5.160;2023-04-10T01:51:37;101822.09;;;10.52;60.53
68230;BME280;55048;52.220;5.160;2023-04-10T01:54:07;101871.06;;;10.83;60.58
68230;BME280;55048;52.220;5.160;2023-04-10T01:56:33;101850.47;;;10.65;61.01
68230;BME280;55048;52.220;5.160;2023-04-10T01:59:00;101869.22;;;10.83;60.85
68230;BME280;55048;52.220;5.160;2023-04-10T02:01:28;101832.28;;;10.62;60.75
68230;BME280;55048;52.220;5.160;2023-04-10T02:03:53;101865.13;;;10.81;60.91
68230;BME280;55048;52.220;5.160;2023-04-10T02:06:27;101850.25;;;10.66;61.26
68230;BME280;55048;52.220;5.160;2023-04-10T02:11:57;101855.63;;;10.53;62.28
68230;BME280;55048;52.220;5.160;2023-04-10T02:14:30;101831.91;;;10.52;61.50
68230;BME280;55048;52.220;5.160;2023-04-10T02:16:57;101848.63;;;10.65;61.52
68230;BME280;55048;52.220;5.160;2023-04-10T02:19:24;101865.41;;;10.72;61.48
68230;BME280;55048;52.220;5.160;2023-04-10T02:21:51;101851.88;;;10.67;61.56
68230;BME280;55048;52.220;5.160;2023-04-10T02:24:18;101851.25;;;10.72;61.63
68230;BME280;55048;52.220;5.160;2023-04-10T02:26:49;101834.34;;;10.53;62.13
68230;BME280;55048;52.220;5.160;2023-04-10T02:29:15;101851.53;;;10.64;62.25
68230;BME280;55048;52.220;5.160;2023-04-10T02:31:41;101839.84;;;10.58;62.07
68230;BME280;55048;52.220;5.160;2023-04-10T02:34:06;101842.59;;;10.45;62.95
68230;BME280;55048;52.220;5.160;2023-04-10T02:36:33;101806.84;;;10.28;62.26
68230;BME280;55048;52.220;5.160;2023-04-10T02:38:59;101733.38;;;9.82;62.39
68230;BME280;55048;52.220;5.160;2023-04-10T02:41:25;101731.94;;;9.86;62.34
68230;BME280;55048;52.220;5.160;2023-04-10T02:43:51;101755.63;;;9.94;62.74
68230;BME280;55048;52.220;5.160;2023-04-10T02:46:23;101742.78;;;9.84;62.40
68230;BME280;55048;52.220;5.160;2023-04-10T02:48:50;101801.75;;;10.19;62.20
68230;BME280;55048;52.220;5.160;2023-04-10T02:51:16;101867.72;;;10.56;62.51
68230;BME280;55048;52.220;5.160;2023-04-10T02:53:42;101817.91;;;10.25;62.96
68230;BME280;55048;52.220;5.160;2023-04-10T02:56:07;101886.16;;;10.51;62.82
68230;BME280;55048;52.220;5.160;2023-04-10T02:58:36;101864.25;;;10.48;62.82
68230;BME280;55048;52.220;5.160;2023-04-10T03:01:01;101872.22;;;10.48;63.01
68230;BME280;55048;52.220;5.160;2023-04-10T03:03:38;101803.63;;;10.06;62.79
68230;BME280;55048;52.220;5.160;2023-04-10T03:06:05;101837.31;;;10.32;62.82
68230;BME280;55048;52.220;5.160;2023-04-10T03:08:32;101814.44;;;10.24;62.74
68230;BME280;55048;52.220;5.160;2023-04-10T03:10:57;101802.00;;;10.05;62.52
68230;BME280;55048;52.220;5.160;2023-04-10T03:13:22;101748.09;;;9.78;62.96
68230;BME280;55048;52.220;5.160;2023-04-10T03:15:48;101746.06;;;9.73;62.77
68230;BME280;55048;52.220;5.160;2023-04-10T03:18:13;101831.19;;;10.25;62.99
68230;BME280;55048;52.220;5.160;2023-04-10T03:20:41;101827.91;;;10.22;62.95
68230;BME280;55048;52.220;5.160;2023-04-10T03:23:07;101778.31;;;9.96;62.90
68230;BME280;55048;52.220;5.160;2023-04-10T03:25:33;101802.81;;;10.12;62.61
68230;BME280;55048;52.220;5.160;2023-04-10T03:27:58;101854.63;;;10.47;62.94
68230;BME280;55048;52.220;5.160;2023-04-10T03:30:24;101699.94;;;9.54;62.56
68230;BME280;55048;52.220;5.160;2023-04-10T03:32:51;101842.59;;;10.45;62.69
68230;BME280;55048;52.220;5.160;2023-04-10T03:35:16;101763.78;;;9.99;62.69
68230;BME280;55048;52.220;5.160;2023-04-10T03:37:41;101793.59;;;10.14;62.72
68230;BME280;55048;52.220;5.160;2023-04-10T03:40:08;101854.69;;;10.41;62.98
68230;BME280;55048;52.220;5.160;2023-04-10T03:42:34;101776.00;;;10.07;62.80
68230;BME280;55048;52.220;5.160;2023-04-10T03:45:00;101806.47;;;10.24;62.83
68230;BME280;55048;52.220;5.160;2023-04-10T03:47:32;101787.22;;;10.15;62.79
68230;BME280;55048;52.220;5.160;2023-04-10T03:49:59;101790.06;;;10.20;62.97
68230;BME280;55048;52.220;5.160;2023-04-10T03:52:25;101829.13;;;10.40;62.85
68230;BME280;55048;52.220;5.160;2023-04-10T03:54:53;101832.78;;;10.39;62.74
68230;BME280;55048;52.220;5.160;2023-04-10T03:57:23;101703.16;;;9.69;62.55
68230;BME280;55048;52.220;5.160;2023-04-10T03:59:53;101821.97;;;10.40;62.77
68230;BME280;55048;52.220;5.160;2023-04-10T04:02:19;101657.50;;;9.41;62.56
68230;BME280;55048;52.220;5.160;2023-04-10T04:04:44;101754.38;;;10.03;62.62
68230;BME280;55048;52.220;5.160;2023-04-10T04:07:39;101748.03;;;9.97;62.85
68230;BME280;55048;52.220;5.160;2023-04-10T04:10:13;101778.66;;;10.13;62.75
68230;BME280;55048;52.220;5.160;2023-04-10T04:12:58;101778.44;;;10.15;62.61
68230;BME280;55048;52.220;5.160;2023-04-10T04:15:34;101706.22;;;9.73;62.37
68230;BME280;55048;52.220;5.160;2023-04-10T04:18:35;101806.19;;;10.39;62.29
68230;BME280;55048;52.220;5.160;2023-04-10T04:21:19;101754.75;;;10.07;62.55
68230;BME280;55048;52.220;5.160;2023-04-10T04:23:59;101768.00;;;10.20;62.60
68230;BME280;55048;52.220;5.160;2023-04-10T04:26:33;101747.63;;;10.01;62.48
68230;BME280;55048;52.220;5.160;2023-04-10T04:29:05;101782.09;;;10.20;62.45
68230;BME280;55048;52.220;5.160;2023-04-10T04:31:44;101749.03;;;10.10;62.33
68230;BME280;55048;52.220;5.160;2023-04-10T04:34:35;101686.22;;;9.70;62.18
68230;BME280;55048;52.220;5.160;2023-04-10T04:37:10;101711.09;;;9.89;62.27
68230;BME280;55048;52.220;5.160;2023-04-10T04:40:02;101680.28;;;9.68;62.32
68230;BME280;55048;52.220;5.160;2023-04-10T04:42:37;101776.59;;;10.29;62.31
68230;BME280;55048;52.220;5.160;2023-04-10T04:45:23;101776.38;;;10.30;62.19
68230;BME280;55048;52.220;5.160;2023-04-10T04:48:05;101713.97;;;9.81;62.33
68230;BME280;55048;52.220;5.160;2023-04-10T04:50:51;101780.28;;;10.14;62.17
68230;BME280;55048;52.220;5.160;2023-04-10T04:53:37;101736.84;;;9.89;62.37
68230;BME280;55048;52.220;5.160;2023-04-10T04:56:32;101674.44;;;9.53;62.60
68230;BME280;55048;52.220;5.160;2023-04-10T04:59:17;101781.28;;;10.20;62.50
68230;BME280;55048;52.220;5.160;2023-04-10T05:02:06;101760.69;;;10.09;62.39
68230;BME280;55048;52.220;5.160;2023-04-10T05:04:41;101725.97;;;9.97;62.48
68230;BME280;55048;52.220;5.160;2023-04-10T05:07:15;101730.69;;;9.95;62.48
68230;BME280;55048;52.220;5.160;2023-04-10T05:09:57;101720.69;;;9.84;62.62
68230;BME280;55048;52.220;5.160;2023-04-10T05:12:35;101765.78;;;10.17;62.60
68230;BME280;55048;52.220;5.160;2023-04-10T05:15:20;101760.91;;;10.01;62.50
68230;BME280;55048;52.220;5.160;2023-04-10T05:18:04;101731.94;;;9.86;62.90
68230;BME280;55048;52.220;5.160;2023-04-10T05:20:48;101758.25;;;10.01;63.29
68230;BME280;55048;52.220;5.160;2023-04-10T05:23:37;101675.19;;;9.60;62.66
68230;BME280;55048;52.220;5.160;2023-04-10T05:26:19;101635.69;;;9.26;63.05
68230;BME280;55048;52.220;5.160;2023-04-10T05:28:45;101631.81;;;9.28;62.94
68230;BME280;55048;52.220;5.160;2023-04-10T05:31:33;101728.66;;;9.90;62.99
68230;BME280;55048;52.220;5.160;2023-04-10T05:34:18;101662.63;;;9.42;63.16
68230;BME280;55048;52.220;5.160;2023-04-10T05:37:09;101734.78;;;9.91;63.09
68230;BME280;55048;52.220;5.160;2023-04-10T05:39:45;101712.34;;;9.80;62.99
68230;BME280;55048;52.220;5.160;2023-04-10T05:42:30;101728.66;;;9.90;63.16
68230;BME280;55048;52.220;5.160;2023-04-10T05:45:16;101580.00;;;8.99;62.74
68230;BME280;55048;52.220;5.160;2023-04-10T05:48:05;101767.41;;;10.18;62.75
68230;BME280;55048;52.220;5.160;2023-04-10T05:50:57;101668.84;;;9.68;62.54
68230;BME280;55048;52.220;5.160;2023-04-10T05:53:30;101419.22;;;8.13;62.36
68230;BME280;55048;52.220;5.160;2023-04-10T05:56:18;101664.16;;;9.63;62.14
68230;BME280;55048;52.220;5.160;2023-04-10T05:59:19;101744.09;;;10.27;62.18
68230;BME280;55048;52.220;5.160;2023-04-10T06:01:57;101690.59;;;9.96;62.33
68230;BME280;55048;52.220;5.160;2023-04-10T06:04:23;101599.31;;;9.39;62.07
68230;BME280;55048;52.220;5.160;2023-04-10T06:06:51;101750.56;;;10.37;62.12
68230;BME280;55048;52.220;5.160;2023-04-10T06:09:17;101742.81;;;10.36;61.82
68230;BME280;55048;52.220;5.160;2023-04-10T06:11:42;101657.16;;;9.82;61.58
68230;BME280;55048;52.220;5.160;2023-04-10T06:14:07;101721.56;;;10.29;61.40
68230;BME280;55048;52.220;5.160;2023-04-10T06:16:40;101726.88;;;10.36;61.25
68230;BME280;55048;52.220;5.160;2023-04-10T06:19:07;101703.75;;;10.30;61.03
68230;BME280;55048;52.220;5.160;2023-04-10T06:21:32;101725.41;;;10.40;60.52
68230;BME280;55048;52.220;5.160;2023-04-10T06:23:58;101576.75;;;9.62;60.73
68230;BME280;55048;52.220;5.160;2023-04-10T06:26:24;101685.13;;;10.36;60.15
68230;BME280;55048;52.220;5.160;2023-04-10T06:28:50;101537.19;;;9.47;60.19
68230;BME280;55048;52.220;5.160;2023-04-10T06:31:19;101671.69;;;10.25;59.99
68230;BME280;55048;52.220;5.160;2023-04-10T06:33:48;101685.69;;;10.45;59.83
68230;BME280;55048;52.220;5.160;2023-04-10T06:36:13;101653.16;;;10.43;59.83
68230;BME280;55048;52.220;5.160;2023-04-10T06:38:45;101692.09;;;10.62;59.59
68230;BME280;55048;52.220;5.160;2023-04-10T06:41:11;101693.44;;;10.78;59.39
68230;BME280;55048;52.220;5.160;2023-04-10T06:43:38;101602.97;;;10.28;59.14
68230;BME280;55048;52.220;5.160;2023-04-10T06:46:04;101537.09;;;9.99;59.04
68230;BME280;55048;52.220;5.160;2023-04-10T06:48:30;101667.25;;;10.75;58.80
68230;BME280;55048;52.220;5.160;2023-04-10T06:50:56;101612.78;;;10.53;58.48
68230;BME280;55048;52.220;5.160;2023-04-10T06:53:21;101587.81;;;10.54;58.34
68230;BME280;55048;52.220;5.160;2023-04-10T06:55:47;101580.13;;;10.45;57.61
68230;BME280;55048;52.220;5.160;2023-04-10T06:58:12;101541.72;;;10.41;57.57
68230;BME280;55048;52.220;5.160;2023-04-10T07:00:38;101667.06;;;11.20;57.12
68230;BME280;55048;52.220;5.160;2023-04-10T07:03:03;101635.28;;;11.00;56.80
68230;BME280;55048;52.220;5.160;2023-04-10T07:05:28;101552.13;;;10.68;56.67
68230;BME280;55048;52.220;5.160;2023-04-10T07:07:54;101651.91;;;11.39;56.62
68230;BME280;55048;52.220;5.160;2023-04-10T07:10:19;101612.13;;;11.26;56.34
68230;BME280;55048;52.220;5.160;2023-04-10T07:12:45;101532.47;;;10.87;56.01
68230;BME280;55048;52.220;5.160;2023-04-10T07:15:10;101480.34;;;10.61;55.54
68230;BME280;55048;52.220;5.160;2023-04-10T07:17:37;101592.66;;;11.43;55.34
68230;BME280;55048;52.220;5.160;2023-04-10T07:20:03;101546.13;;;11.28;55.29
68230;BME280;55048;52.220;5.160;2023-04-10T07:22:28;101627.31;;;11.92;54.47
68230;BME280;55048;52.220;5.160;2023-04-10T07:24:54;101555.72;;;11.47;54.64
68230;BME280;55048;52.220;5.160;2023-04-10T07:27:19;101625.88;;;12.08;54.77
68230;BME280;55048;52.220;5.160;2023-04-10T07:29:45;101475.94;;;11.22;54.61
68230;BME280;55048;52.220;5.160;2023-04-10T07:32:10;101489.47;;;11.39;54.07
68230;BME280;55048;52.220;5.160;2023-04-10T07:34:36;101611.25;;;11.98;54.00
68230;BME280;55048;52.220;5.160;2023-04-10T07:37:01;101489.50;;;11.50;53.75
68230;BME280;55048;52.220;5.160;2023-04-10T07:39:27;101556.88;;;11.99;53.48
68230;BME280;55048;52.220;5.160;2023-04-10T07:41:53;101548.91;;;12.11;53.30
68230;BME280;55048;52.220;5.160;2023-04-10T07:44:19;101601.28;;;12.59;52.79
68230;BME280;55048;52.220;5.160;2023-04-10T07:46:44;101464.72;;;11.92;52.91
68230;BME280;55048;52.220;5.160;2023-04-10T07:49:10;101529.56;;;12.39;52.75
68230;BME280;55048;52.220;5.160;2023-04-10T07:51:36;101520.06;;;12.20;52.61
68230;BME280;55048;52.220;5.160;2023-04-10T07:54:04;101500.00;;;12.17;52.26
68230;BME280;55048;52.220;5.160;2023-04-10T07:56:30;101500.56;;;12.19;52.49
68230;BME280;55048;52.220;5.160;2023-04-10T07:58:58;101543.72;;;12.28;52.33
68230;BME280;55048;52.220;5.160;2023-04-10T08:01:24;101547.22;;;12.52;52.59
68230;BME280;55048;52.220;5.160;2023-04-10T08:03:50;101543.59;;;12.58;52.59
68230;BME280;55048;52.220;5.160;2023-04-10T08:06:16;101493.53;;;12.37;52.46
68230;BME280;55048;52.220;5.160;2023-04-10T08:08:42;101403.84;;;11.77;52.32
68230;BME280;55048;52.220;5.160;2023-04-10T08:11:31;101563.22;;;12.87;52.17
68230;BME280;55048;52.220;5.160;2023-04-10T08:13:58;101580.34;;;13.15;51.57
68230;BME280;55048;52.220;5.160;2023-04-10T08:16:27;101582.56;;;13.18;51.84
68230;BME280;55048;52.220;5.160;2023-04-10T08:18:53;101558.97;;;13.15;51.46
68230;BME280;55048;52.220;5.160;2023-04-10T08:21:23;101560.53;;;13.22;51.64
68230;BME280;55048;52.220;5.160;2023-04-10T08:23:51;101555.59;;;13.19;51.85
68230;BME280;55048;52.220;5.160;2023-04-10T08:26:16;101554.47;;;13.15;51.55
68230;BME280;55048;52.220;5.160;2023-04-10T08:28:45;101334.47;;;11.84;51.50
68230;BME280;55048;52.220;5.160;2023-04-10T08:31:13;101551.00;;;13.26;51.60
68230;BME280;55048;52.220;5.160;2023-04-10T08:33:38;101396.66;;;12.48;51.42
68230;BME280;55048;52.220;5.160;2023-04-10T08:36:04;101534.00;;;13.33;51.68
68230;BME280;55048;52.220;5.160;2023-04-10T08:38:30;101526.25;;;13.31;51.77
68230;BME280;55048;52.220;5.160;2023-04-10T08:40:56;101498.84;;;13.24;51.60
68230;BME280;55048;52.220;5.160;2023-04-10T08:43:22;101520.28;;;13.41;51.81
68230;BME280;55048;52.220;5.160;2023-04-10T08:45:47;101500.69;;;13.23;52.17
68230;BME280;55048;52.220;5.160;2023-04-10T08:48:13;101456.91;;;12.84;52.21
68230;BME280;55048;52.220;5.160;2023-04-10T08:50:41;101439.69;;;12.51;52.33
68230;BME280;55048;52.220;5.160;2023-04-10T08:53:11;101463.53;;;12.82;52.34
68230;BME280;55048;52.220;5.160;2023-04-10T08:55:38;101470.72;;;12.93;52.49
68230;BME280;55048;52.220;5.160;2023-04-10T08:58:05;101497.25;;;12.99;52.51
68230;BME280;55048;52.220;5.160;2023-04-10T09:00:32;101474.09;;;12.88;52.62
68230;BME280;55048;52.220;5.160;2023-04-10T09:02:59;101460.63;;;12.83;52.88
68230;BME280;55048;52.220;5.160;2023-04-10T09:05:28;101377.44;;;12.34;52.89
68230;BME280;55048;52.220;5.160;2023-04-10T09:07:54;101377.06;;;12.42;53.15
68230;BME280;55048;52.220;5.160;2023-04-10T09:10:24;101484.00;;;13.05;53.03
68230;BME280;55048;52.220;5.160;2023-04-10T09:12:51;101452.03;;;12.81;52.96
68230;BME280;55048;52.220;5.160;2023-04-10T09:15:16;101415.06;;;12.73;52.66
68230;BME280;55048;52.220;5.160;2023-04-10T09:18:01;101437.19;;;12.85;53.25
68230;BME280;55048;52.220;5.160;2023-04-10T09:20:29;101480.59;;;13.21;52.92
68230;BME280;55048;52.220;5.160;2023-04-10T09:22:55;101336.72;;;12.39;52.83
68230;BME280;55048;52.220;5.160;2023-04-10T09:28:02;101477.00;;;13.56;52.60
68230;BME280;55048;52.220;5.160;2023-04-10T09:30:39;101406.75;;;13.15;52.12
68230;BME280;55048;52.220;5.160;2023-04-10T09:33:37;101451.50;;;13.48;52.31
68230;BME280;55048;52.220;5.160;2023-04-10T09:36:03;101437.78;;;13.61;52.14
68230;BME280;55048;52.220;5.160;2023-04-10T09:38:28;101430.19;;;13.53;52.70
68230;BME280;55048;52.220;5.160;2023-04-10T09:41:05;101449.56;;;13.77;52.61
68230;BME280;55048;52.220;5.160;2023-04-10T09:43:31;101365.47;;;13.51;52.19
68230;BME280;55048;52.220;5.160;2023-04-10T09:45:56;101425.34;;;14.00;51.94
68230;BME280;55048;52.220;5.160;2023-04-10T09:48:24;101398.66;;;14.06;51.45
68230;BME280;55048;52.220;5.160;2023-04-10T09:50:50;101409.63;;;14.26;51.35
68230;BME280;55048;52.220;5.160;2023-04-10T09:53:18;101435.19;;;14.50;50.94
68230;BME280;55048;52.220;5.160;2023-04-10T09:55:45;101364.59;;;14.18;50.71
68230;BME280;55048;52.220;5.160;2023-04-10T09:58:12;101414.31;;;14.52;50.56
68230;BME280;55048;52.220;5.160;2023-04-10T10:00:43;101330.94;;;14.00;50.48
68230;BME280;55048;52.220;5.160;2023-04-10T10:03:14;101417.00;;;14.52;50.63
68230;BME280;55048;52.220;5.160;2023-04-10T10:05:47;101364.13;;;14.43;50.66
68230;BME280;55048;52.220;5.160;2023-04-10T10:08:13;101340.41;;;14.29;50.90
68230;BME280;55048;52.220;5.160;2023-04-10T10:10:43;101411.06;;;14.72;50.56
68230;BME280;55048;52.220;5.160;2023-04-10T10:16:04;101399.28;;;14.95;50.49
68230;BME280;55048;52.220;5.160;2023-04-10T10:18:38;101243.97;;;13.97;49.97
68230;BME280;55048;52.220;5.160;2023-04-10T10:21:08;101272.81;;;14.17;49.63
68230;BME280;55048;52.220;5.160;2023-04-10T10:23:39;101279.88;;;14.23;49.92
68230;BME280;55048;52.220;5.160;2023-04-10T10:26:09;101289.25;;;14.26;49.84
68230;BME280;55048;52.220;5.160;2023-04-10T10:28:36;101313.34;;;14.48;49.69
68230;BME280;55048;52.220;5.160;2023-04-10T10:31:03;101374.63;;;14.93;50.00
68230;BME280;55048;52.220;5.160;2023-04-10T10:33:30;101304.34;;;14.81;49.95
68230;BME280;55048;52.220;5.160;2023-04-10T10:35:58;101268.59;;;14.65;50.04
68230;BME280;55048;52.220;5.160;2023-04-10T10:38:25;101354.63;;;15.33;49.71
68230;BME280;55048;52.220;5.160;2023-04-10T10:41:07;101196.19;;;14.28;49.53
68230;BME280;55048;52.220;5.160;2023-04-10T10:43:40;101346.91;;;15.37;49.10
68230;BME280;55048;52.220;5.160;2023-04-10T10:46:16;101341.25;;;15.38;49.61
68230;BME280;55048;52.220;5.160;2023-04-10T10:48:58;101328.22;;;15.47;49.36
68230;BME280;55048;52.220;5.160;2023-04-10T10:51:50;101264.34;;;15.39;49.42
68230;BME280;55048;52.220;5.160;2023-04-10T10:54:42;101280.00;;;15.52;49.35
68230;BME280;55048;52.220;5.160;2023-04-10T10:58:00;101321.84;;;15.90;49.20
68230;BME280;55048;52.220;5.160;2023-04-10T11:00:23;101311.59;;;15.82;49.52
68230;BME280;55048;52.220;5.160;2023-04-10T11:06:06;101229.66;;;15.59;50.07
68230;BME280;55048;52.220;5.160;2023-04-10T11:11:03;101286.44;;;15.93;50.01
68230;BME280;55048;52.220;5.160;2023-04-10T11:16:03;101268.53;;;16.09;49.89
68230;BME280;55048;52.220;5.160;2023-04-10T11:21:19;101208.84;;;15.76;49.36
68230;BME280;55048;52.220;5.160;2023-04-10T11:28:59;101249.00;;;16.29;49.23
68230;BME280;55048;52.220;5.160;2023-04-10T11:31:25;101157.44;;;16.00;49.34
68230;BME280;55048;52.220;5.160;2023-04-10T11:34:05;101235.91;;;16.48;49.24
68230;BME280;55048;52.220;5.160;2023-04-10T11:36:33;101229.75;;;16.68;48.95
68230;BME280;55048;52.220;5.160;2023-04-10T11:39:07;101147.81;;;16.24;48.18
68230;BME280;55048;52.220;5.160;2023-04-10T11:44:02;101227.09;;;17.08;48.85
68230;BME280;55048;52.220;5.160;2023-04-10T11:46:28;101205.63;;;16.98;48.14
68230;BME280;55048;52.220;5.160;2023-04-10T11:48:59;101225.50;;;17.07;47.81
68230;BME280;55048;52.220;5.160;2023-04-10T11:51:25;101224.66;;;17.22;47.98
68230;BME280;55048;52.220;5.160;2023-04-10T11:54:11;101213.91;;;17.27;47.92
68230;BME280;55048;52.220;5.160;2023-04-10T11:56:39;101196.19;;;17.16;48.27
68230;BME280;55048;52.220;5.160;2023-04-10T11:59:06;101102.75;;;16.57;48.22
68230;BME280;55048;52.220;5.160;2023-04-10T12:01:34;101128.25;;;16.80;47.89
68230;BME280;55048;52.220;5.160;2023-04-10T12:03:59;101187.06;;;17.12;48.17
68230;BME280;55048;52.220;5.160;2023-04-10T12:06:26;101199.94;;;17.10;48.18
68230;BME280;55048;52.220;5.160;2023-04-10T12:08:52;101169.63;;;16.94;48.05
68230;BME280;55048;52.220;5.160;2023-04-10T12:11:18;101143.81;;;16.78;48.97
68230;BME280;55048;52.220;5.160;2023-04-10T12:13:47;101187.06;;;17.07;49.09
68230;BME280;55048;52.220;5.160;2023-04-10T12:16:15;101078.31;;;16.38;49.02
68230;BME280;55048;52.220;5.160;2023-04-10T12:18:41;101085.03;;;16.51;49.68
68230;BME280;55048;52.220;5.160;2023-04-10T12:21:07;101162.63;;;16.93;48.98
68230;BME280;55048;52.220;5.160;2023-04-10T12:23:33;101159.94;;;16.93;49.61
68230;BME280;55048;52.220;5.160;2023-04-10T12:26:14;101150.28;;;16.82;49.24
68230;BME280;55048;52.220;5.160;2023-04-10T12:28:41;101135.53;;;16.74;49.18
68230;BME280;55048;52.220;5.160;2023-04-10T12:31:13;101109.19;;;16.51;50.07
68230;BME280;55048;52.220;5.160;2023-04-10T12:33:39;101108.63;;;16.59;49.70
68230;BME280;55048;52.220;5.160;2023-04-10T12:36:22;101132.78;;;16.59;49.78
68230;BME280;55048;52.220;5.160;2023-04-10T12:38:47;101124.75;;;16.54;50.30
68230;BME280;55048;52.220;5.160;2023-04-10T12:41:22;101115.34;;;16.41;50.04
68230;BME280;55048;52.220;5.160;2023-04-10T12:43:49;101029.19;;;15.97;50.41
68230;BME280;55048;52.220;5.160;2023-04-10T12:46:41;101100.06;;;16.52;50.53
68230;BME280;55048;52.220;5.160;2023-04-10T12:49:15;101098.69;;;16.49;50.66
68230;BME280;55048;52.220;5.160;2023-04-10T12:51:46;101063.03;;;16.23;50.46
68230;BME280;55048;52.220;5.160;2023-04-10T13:00:35;101075.09;;;16.36;51.05
68230;BME280;55048;52.220;5.160;2023-04-10T13:03:02;101081.53;;;16.35;51.15
68230;BME280;55048;52.220;5.160;2023-04-10T13:05:27;101050.13;;;16.25;51.03
68230;BME280;55048;52.220;5.160;2023-04-10T13:07:54;101082.06;;;16.42;51.33
68230;BME280;55048;52.220;5.160;2023-04-10T13:10:19;101052.53;;;16.27;51.47
68230;BME280;55048;52.220;5.160;2023-04-10T13:12:46;100966.16;;;15.74;51.74
68230;BME280;55048;52.220;5.160;2023-04-10T13:15:11;101005.06;;;16.02;51.57
68230;BME280;55048;52.220;5.160;2023-04-10T13:17:36;101013.91;;;16.07;52.70
68230;BME280;55048;52.220;5.160;2023-04-10T13:20:02;101062.22;;;16.43;53.21
68230;BME280;55048;52.220;5.160;2023-04-10T13:22:28;101003.16;;;16.13;53.94
68230;BME280;55048;52.220;5.160;2023-04-10T13:24:54;100997.53;;;15.99;54.52
68230;BME280;55048;52.220;5.160;2023-04-10T13:27:19;101055.50;;;16.36;55.09
68230;BME280;55048;52.220;5.160;2023-04-10T13:29:44;101042.88;;;16.21;56.75
68230;BME280;55048;52.220;5.160;2023-04-10T13:32:10;101033.50;;;16.18;56.31
68230;BME280;55048;52.220;5.160;2023-04-10T13:34:35;101027.31;;;16.07;57.16
68230;BME280;55048;52.220;5.160;2023-04-10T13:37:01;101033.25;;;16.04;58.98
68230;BME280;55048;52.220;5.160;2023-04-10T13:39:28;101017.13;;;15.89;58.77
68230;BME280;55048;52.220;5.160;2023-04-10T13:41:53;100973.38;;;15.58;59.48
68230;BME280;55048;52.220;5.160;2023-04-10T13:44:19;101013.06;;;15.66;61.10
68230;BME280;55048;52.220;5.160;2023-04-10T13:46:44;100987.56;;;15.48;61.36